createdAt,value
2023-07-25T00:01:39.681Z,18.14
2023-07-25T00:04:06.151Z,18.12
2023-07-25T00:06:32.685Z,18.14
2023-07-25T00:08:59.205Z,18.05
2023-07-25T00:11:25.689Z,18.06
2023-07-25T00:13:52.181Z,18.05
2023-07-25T00:16:18.744Z,18.06
2023-07-25T00:18:45.216Z,18.09
2023-07-25T00:21:11.701Z,18.11
2023-07-25T00:23:38.159Z,18.10
2023-07-25T00:26:04.571Z,18.12
2023-07-25T00:28:30.970Z,18.12
2023-07-25T00:30:57.522Z,18.13
2023-07-25T00:33:23.928Z,18.14
2023-07-25T00:35:53.945Z,18.12
2023-07-25T00:38:20.413Z,18.09
2023-07-25T00:40:47.915Z,18.09
2023-07-25T00:43:14.784Z,18.06
2023-07-25T00:45:41.451Z,18.06
2023-07-25T00:48:07.987Z,18.03
2023-07-25T00:50:34.600Z,18.04
2023-07-25T00:53:02.479Z,18.02
2023-07-25T00:55:29.775Z,17.98
2023-07-25T00:57:56.224Z,17.96
2023-07-25T01:00:22.721Z,17.97
2023-07-25T01:02:49.819Z,17.96
2023-07-25T01:05:16.652Z,17.93
2023-07-25T01:07:43.197Z,17.89
2023-07-25T01:10:09.971Z,17.87
2023-07-25T01:12:36.457Z,17.84
2023-07-25T01:15:03.358Z,17.79
2023-07-25T01:17:29.940Z,17.76
2023-07-25T01:19:57.174Z,17.73
2023-07-25T01:22:27.375Z,17.70
2023-07-25T01:24:55.824Z,17.68
2023-07-25T01:27:22.429Z,17.65
2023-07-25T01:29:49.083Z,17.62
2023-07-25T01:32:15.595Z,17.56
2023-07-25T01:34:42.129Z,17.55
2023-07-25T01:37:09.572Z,17.49
2023-07-25T01:39:36.119Z,17.46
2023-07-25T01:42:02.823Z,17.45
2023-07-25T01:44:29.345Z,17.43
2023-07-25T01:46:58.119Z,17.44
2023-07-25T01:49:24.653Z,17.42
2023-07-25T01:51:51.215Z,17.38
2023-07-25T01:54:20.583Z,17.36
2023-07-25T01:56:50.305Z,17.34
2023-07-25T01:59:18.112Z,17.30
2023-07-25T02:01:44.714Z,17.23
2023-07-25T02:04:11.219Z,17.20
2023-07-25T02:06:37.771Z,17.12
2023-07-25T02:09:04.391Z,17.10
2023-07-25T02:11:31.237Z,17.05
2023-07-25T02:13:57.929Z,16.95
2023-07-25T02:16:25.318Z,16.96
2023-07-25T02:18:51.829Z,16.99
2023-07-25T02:21:18.258Z,17.04
2023-07-25T02:23:44.858Z,17.03
2023-07-25T02:26:11.393Z,17.04
2023-07-25T02:28:37.863Z,17.02
2023-07-25T02:31:04.324Z,16.99
2023-07-25T02:33:30.965Z,17.01
2023-07-25T02:35:57.377Z,17.00
2023-07-25T02:38:25.039Z,16.96
2023-07-25T02:40:51.517Z,16.91
2023-07-25T02:43:18.215Z,16.91
2023-07-25T02:45:44.645Z,16.86
2023-07-25T02:48:11.057Z,16.85
2023-07-25T02:50:37.476Z,16.89
2023-07-25T02:53:03.970Z,16.90
2023-07-25T02:55:31.529Z,16.88
2023-07-25T02:57:58.018Z,16.87
2023-07-25T03:00:25.402Z,16.85
2023-07-25T03:02:52.081Z,16.82
2023-07-25T03:05:19.089Z,16.78
2023-07-25T03:07:45.552Z,16.76
2023-07-25T03:10:12.052Z,16.82
2023-07-25T03:12:38.558Z,16.82
2023-07-25T03:15:05.456Z,16.71
2023-07-25T03:17:32.550Z,16.59
2023-07-25T03:19:59.219Z,16.41
2023-07-25T03:22:25.679Z,16.31
2023-07-25T03:24:52.203Z,16.29
2023-07-25T03:27:18.977Z,16.33
2023-07-25T03:29:45.526Z,16.35
2023-07-25T03:32:11.983Z,16.39
2023-07-25T03:34:38.405Z,16.37
2023-07-25T03:37:05.154Z,16.45
2023-07-25T03:39:31.625Z,16.53
2023-07-25T03:41:58.047Z,16.58
2023-07-25T03:44:24.498Z,16.69
2023-07-25T03:46:50.954Z,16.78
2023-07-25T03:49:17.412Z,16.89
2023-07-25T03:51:43.997Z,16.94
2023-07-25T03:54:11.894Z,17.03
2023-07-25T03:56:38.724Z,17.08
2023-07-25T03:59:05.150Z,17.14
2023-07-25T04:01:32.270Z,17.17
2023-07-25T04:03:59.168Z,17.18
2023-07-25T04:06:25.802Z,17.18
2023-07-25T04:08:52.278Z,17.21
2023-07-25T04:11:18.841Z,17.20
2023-07-25T04:13:45.323Z,17.21
2023-07-25T04:16:11.872Z,17.22
2023-07-25T04:18:38.402Z,17.23
2023-07-25T04:21:04.835Z,17.25
2023-07-25T04:23:31.319Z,17.28
2023-07-25T04:25:57.844Z,17.29
2023-07-25T04:28:24.254Z,17.30
2023-07-25T04:30:50.830Z,17.32
2023-07-25T04:33:17.289Z,17.35
2023-07-25T04:35:46.528Z,17.36
2023-07-25T04:38:14.422Z,17.37
2023-07-25T04:40:41.026Z,17.35
2023-07-25T04:43:07.498Z,17.35
2023-07-25T04:45:33.948Z,17.29
2023-07-25T04:48:00.663Z,17.26
2023-07-25T04:50:27.152Z,17.22
2023-07-25T04:52:53.693Z,17.20
2023-07-25T04:55:20.321Z,17.21
2023-07-25T04:57:46.897Z,17.16
2023-07-25T05:00:13.666Z,17.11
2023-07-25T05:02:42.457Z,17.14
2023-07-25T05:05:09.337Z,17.15
2023-07-25T05:07:35.768Z,17.13
2023-07-25T05:10:02.252Z,17.12
2023-07-25T05:12:28.699Z,17.12
2023-07-25T05:14:55.095Z,17.10
2023-07-25T05:17:21.612Z,17.10
2023-07-25T05:19:50.653Z,17.12
2023-07-25T05:22:17.472Z,17.14
2023-07-25T05:24:43.948Z,17.19
2023-07-25T05:27:10.443Z,17.25
2023-07-25T05:29:36.951Z,17.26
2023-07-25T05:32:03.554Z,17.26
2023-07-25T05:34:30.044Z,17.21
2023-07-25T05:36:56.458Z,17.27
2023-07-25T05:39:22.918Z,17.28
2023-07-25T05:41:49.324Z,17.29
2023-07-25T05:44:15.905Z,17.30
2023-07-25T05:46:42.321Z,17.33
2023-07-25T05:49:08.799Z,17.34
2023-07-25T05:51:35.318Z,17.37
2023-07-25T05:54:01.756Z,17.42
2023-07-25T05:56:28.252Z,17.47
2023-07-25T05:58:55.412Z,17.49
2023-07-25T06:01:22.049Z,17.45
2023-07-25T06:03:48.586Z,17.35
2023-07-25T06:06:15.122Z,17.30
2023-07-25T06:08:41.573Z,17.34
2023-07-25T06:11:08.303Z,17.38
2023-07-25T06:13:35.291Z,17.43
2023-07-25T06:16:01.897Z,17.47
2023-07-25T06:18:28.523Z,17.46
2023-07-25T06:20:55.077Z,17.48
2023-07-25T06:23:21.911Z,17.47
2023-07-25T06:25:48.433Z,17.48
2023-07-25T06:28:18.821Z,17.57
2023-07-25T06:30:45.478Z,17.63
2023-07-25T06:33:16.542Z,17.67
2023-07-25T06:35:43.088Z,17.68
2023-07-25T06:38:09.512Z,17.72
2023-07-25T06:40:35.970Z,17.75
2023-07-25T06:43:02.419Z,17.76
2023-07-25T06:45:28.861Z,17.77
2023-07-25T06:47:55.377Z,17.77
2023-07-25T06:50:22.001Z,17.77
2023-07-25T06:52:48.604Z,17.75
2023-07-25T06:55:16.406Z,17.73
2023-07-25T06:57:42.939Z,17.66
2023-07-25T07:00:10.178Z,17.58
2023-07-25T07:02:36.712Z,17.57
2023-07-25T07:05:15.400Z,17.54
2023-07-25T07:07:50.058Z,17.54
2023-07-25T07:10:16.615Z,17.56
2023-07-25T07:12:48.801Z,17.56
2023-07-25T07:15:19.080Z,17.61
2023-07-25T07:17:45.759Z,17.62
2023-07-25T07:20:12.775Z,17.57
2023-07-25T07:22:39.281Z,17.56
2023-07-25T07:25:06.220Z,17.57
2023-07-25T07:27:32.671Z,17.64
2023-07-25T07:29:59.222Z,17.73
2023-07-25T07:32:25.807Z,17.80
2023-07-25T07:34:52.312Z,17.92
2023-07-25T07:37:18.825Z,17.96
2023-07-25T07:39:45.240Z,17.98
2023-07-25T07:42:11.681Z,18.02
2023-07-25T07:44:38.160Z,18.10
2023-07-25T07:47:05.002Z,18.14
2023-07-25T07:49:34.315Z,18.19
2023-07-25T07:52:13.489Z,18.22
2023-07-25T07:54:44.277Z,18.29
2023-07-25T07:57:10.819Z,18.40
2023-07-25T07:59:37.380Z,18.59
2023-07-25T08:02:04.169Z,18.75
2023-07-25T08:04:30.639Z,18.81
2023-07-25T08:06:57.169Z,18.82
2023-07-25T08:09:23.655Z,18.89
2023-07-25T08:11:50.219Z,18.96
2023-07-25T08:14:16.800Z,19.14
2023-07-25T08:16:43.294Z,19.54
2023-07-25T08:19:09.838Z,19.70
2023-07-25T08:21:37.279Z,19.72
2023-07-25T08:24:04.719Z,19.87
2023-07-25T08:26:31.472Z,19.81
2023-07-25T08:28:58.042Z,19.72
2023-07-25T08:31:24.660Z,19.55
2023-07-25T08:33:51.171Z,19.36
2023-07-25T08:36:17.561Z,19.23
2023-07-25T08:38:44.099Z,19.22
2023-07-25T08:41:26.552Z,19.35
2023-07-25T08:43:54.182Z,19.48
2023-07-25T08:46:21.362Z,19.48
2023-07-25T08:48:49.636Z,19.52
2023-07-25T08:51:23.947Z,19.74
2023-07-25T08:54:03.848Z,19.99
2023-07-25T08:56:31.428Z,20.16
2023-07-25T08:58:59.758Z,20.27
2023-07-25T09:01:26.757Z,20.46
2023-07-25T09:03:54.944Z,20.63
2023-07-25T09:06:21.972Z,20.72
2023-07-25T09:08:48.355Z,20.90
2023-07-25T09:11:20.357Z,20.93
2023-07-25T09:13:46.843Z,20.79
2023-07-25T09:16:16.201Z,20.64
2023-07-25T09:18:43.640Z,20.43
2023-07-25T09:21:10.267Z,20.27
2023-07-25T09:23:36.770Z,20.18
2023-07-25T09:26:10.652Z,20.18
2023-07-25T09:28:49.671Z,20.16
2023-07-25T09:31:16.374Z,20.09
2023-07-25T09:33:42.911Z,20.13
2023-07-25T09:36:09.701Z,20.18
2023-07-25T09:38:36.142Z,20.37
2023-07-25T09:41:04.763Z,20.69
2023-07-25T09:43:31.212Z,21.00
2023-07-25T09:45:57.759Z,20.95
2023-07-25T09:48:24.295Z,20.94
2023-07-25T09:50:51.641Z,21.19
2023-07-25T09:53:19.101Z,21.38
2023-07-25T09:55:46.704Z,21.85
2023-07-25T09:58:13.750Z,21.89
2023-07-25T10:00:41.789Z,21.64
2023-07-25T10:03:11.473Z,21.70
2023-07-25T10:05:45.348Z,21.96
2023-07-25T10:08:12.838Z,22.10
2023-07-25T10:10:41.694Z,22.15
2023-07-25T10:13:10.020Z,22.22
2023-07-25T10:15:37.507Z,22.16
2023-07-25T10:18:05.530Z,22.15
2023-07-25T10:20:32.122Z,22.25
2023-07-25T10:23:10.627Z,22.35
2023-07-25T10:25:37.179Z,22.45
2023-07-25T10:28:05.300Z,22.46
2023-07-25T10:30:46.382Z,22.15
2023-07-25T10:33:14.836Z,21.94
2023-07-25T10:35:51.637Z,21.92
2023-07-25T10:38:33.026Z,22.22
2023-07-25T10:41:00.635Z,22.18
2023-07-25T10:43:50.709Z,21.96
2023-07-25T10:46:28.218Z,21.90
2023-07-25T10:48:56.810Z,21.76
2023-07-25T10:51:24.279Z,21.63
2023-07-25T10:54:11.176Z,21.55
2023-07-25T10:56:38.870Z,21.51
2023-07-25T10:59:13.206Z,21.48
2023-07-25T11:01:44.823Z,21.25
2023-07-25T11:04:39.294Z,21.02
2023-07-25T11:07:13.812Z,20.87
2023-07-25T11:09:43.071Z,20.73
2023-07-25T11:12:11.181Z,20.64
2023-07-25T11:14:45.499Z,20.66
2023-07-25T11:17:13.317Z,20.82
2023-07-25T11:19:39.990Z,20.99
2023-07-25T11:22:13.117Z,21.34
2023-07-25T11:24:44.538Z,21.89
2023-07-25T11:27:12.182Z,22.31
2023-07-25T11:29:38.690Z,22.56
2023-07-25T11:32:05.537Z,22.84
2023-07-25T11:34:31.969Z,23.03
2023-07-25T11:36:58.459Z,23.06
2023-07-25T11:39:24.991Z,23.26
2023-07-25T11:41:51.510Z,23.64
2023-07-25T11:44:20.233Z,23.92
2023-07-25T11:46:52.700Z,23.81
2023-07-25T11:49:40.305Z,23.50
2023-07-25T11:52:09.140Z,23.02
2023-07-25T11:54:35.762Z,22.58
2023-07-25T11:57:02.914Z,22.33
2023-07-25T11:59:29.474Z,22.21
2023-07-25T12:02:05.760Z,22.10
2023-07-25T12:04:32.329Z,21.99
2023-07-25T12:07:00.160Z,21.57
2023-07-25T12:09:29.884Z,20.86
2023-07-25T12:11:56.379Z,20.23
2023-07-25T12:14:23.339Z,19.86
2023-07-25T12:16:49.980Z,19.70
2023-07-25T12:19:16.651Z,19.55
2023-07-25T12:21:45.322Z,19.22
2023-07-25T12:24:13.766Z,18.90
2023-07-25T12:26:52.976Z,18.71
2023-07-25T12:29:25.586Z,18.42
2023-07-25T12:31:53.529Z,18.16
2023-07-25T12:34:21.656Z,18.07
2023-07-25T12:36:49.872Z,18.11
2023-07-25T12:39:16.657Z,18.13
2023-07-25T12:41:44.752Z,18.13
2023-07-25T12:44:11.983Z,18.19
2023-07-25T12:46:41.639Z,18.12
2023-07-25T12:49:08.537Z,18.13
2023-07-25T12:51:35.382Z,18.22
2023-07-25T12:54:02.478Z,18.13
2023-07-25T12:56:28.964Z,18.12
2023-07-25T12:58:55.960Z,18.24
2023-07-25T13:01:23.108Z,18.36
2023-07-25T13:03:49.813Z,18.42
2023-07-25T13:06:16.405Z,19.14
2023-07-25T13:08:42.835Z,19.63
2023-07-25T13:11:09.381Z,19.56
2023-07-25T13:13:35.954Z,19.36
2023-07-25T13:16:04.814Z,19.15
2023-07-25T13:18:31.360Z,18.94
2023-07-25T13:20:57.804Z,18.69
2023-07-25T13:23:24.291Z,18.55
2023-07-25T13:25:51.049Z,18.64
2023-07-25T13:28:17.749Z,18.64
2023-07-25T13:30:44.505Z,18.52
2023-07-25T13:33:11.478Z,18.45
2023-07-25T13:35:38.090Z,18.42
2023-07-25T13:38:04.655Z,18.30
2023-07-25T13:40:31.241Z,18.10
2023-07-25T13:42:57.731Z,17.98
2023-07-25T13:45:34.361Z,18.05
2023-07-25T13:48:04.672Z,18.09
2023-07-25T13:50:42.172Z,18.05
2023-07-25T13:53:09.204Z,18.18
2023-07-25T13:55:35.709Z,18.35
2023-07-25T13:58:09.944Z,18.48
2023-07-25T14:00:36.719Z,18.49
2023-07-25T14:03:03.496Z,18.50
2023-07-25T14:05:29.974Z,18.43
2023-07-25T14:07:56.425Z,18.35
2023-07-25T14:10:22.944Z,18.27
2023-07-25T14:12:49.406Z,18.24
2023-07-25T14:15:15.877Z,18.19
2023-07-25T14:17:42.457Z,18.21
2023-07-25T14:20:09.473Z,18.20
2023-07-25T14:22:35.861Z,18.12
2023-07-25T14:25:02.372Z,18.12
2023-07-25T14:27:28.905Z,18.17
2023-07-25T14:29:55.496Z,18.20
2023-07-25T14:32:22.157Z,18.19
2023-07-25T14:34:50.818Z,18.21
2023-07-25T14:37:17.288Z,18.21
2023-07-25T14:39:44.052Z,18.19
2023-07-25T14:42:10.485Z,18.27
2023-07-25T14:44:36.905Z,18.51
2023-07-25T14:47:03.543Z,18.71
2023-07-25T14:49:30.118Z,18.77
2023-07-25T14:51:57.318Z,18.78
2023-07-25T14:54:23.797Z,18.88
2023-07-25T14:56:50.621Z,19.02
2023-07-25T14:59:17.123Z,19.31
2023-07-25T15:01:43.641Z,19.57
2023-07-25T15:04:10.367Z,19.35
2023-07-25T15:06:36.870Z,19.18
2023-07-25T15:09:03.503Z,19.14
2023-07-25T15:11:30.474Z,19.09
2023-07-25T15:13:56.925Z,19.13
2023-07-25T15:16:23.488Z,19.09
2023-07-25T15:18:49.995Z,19.03
2023-07-25T15:21:16.536Z,19.01
2023-07-25T15:23:42.982Z,18.85
2023-07-25T15:26:11.289Z,18.70
2023-07-25T15:28:38.213Z,18.63
2023-07-25T15:31:04.909Z,18.56
2023-07-25T15:33:31.474Z,18.51
2023-07-25T15:35:58.287Z,18.45
2023-07-25T15:38:25.597Z,18.42
2023-07-25T15:40:52.214Z,18.40
2023-07-25T15:43:18.636Z,18.35
2023-07-25T15:45:45.117Z,18.34
2023-07-25T15:48:11.836Z,18.36
2023-07-25T15:50:38.286Z,18.37
2023-07-25T15:53:04.745Z,18.41
2023-07-25T15:55:31.262Z,18.41
2023-07-25T15:57:57.762Z,18.36
2023-07-25T16:00:25.209Z,18.28
2023-07-25T16:02:51.772Z,18.23
2023-07-25T16:05:18.323Z,18.19
2023-07-25T16:07:44.778Z,18.14
2023-07-25T16:10:11.233Z,18.11
2023-07-25T16:12:37.767Z,18.06
2023-07-25T16:15:04.766Z,18.04
2023-07-25T16:17:31.348Z,17.98
2023-07-25T16:19:57.989Z,18.00
2023-07-25T16:22:24.562Z,17.99
2023-07-25T16:24:51.166Z,18.01
2023-07-25T16:27:17.736Z,17.93
2023-07-25T16:29:44.158Z,17.87
2023-07-25T16:32:14.181Z,17.90
2023-07-25T16:34:40.686Z,17.86
2023-07-25T16:37:07.259Z,17.91
2023-07-25T16:39:33.858Z,17.95
2023-07-25T16:42:00.387Z,18.00
2023-07-25T16:44:26.793Z,18.03
2023-07-25T16:46:53.200Z,18.04
2023-07-25T16:49:19.881Z,18.10
2023-07-25T16:51:46.432Z,18.14
2023-07-25T16:54:12.932Z,18.08
2023-07-25T16:56:39.721Z,17.89
2023-07-25T16:59:08.015Z,17.46
2023-07-25T17:01:34.948Z,17.07
2023-07-25T17:04:01.922Z,16.75
2023-07-25T17:06:28.470Z,16.53
2023-07-25T17:08:56.489Z,16.34
2023-07-25T17:11:23.036Z,16.08
2023-07-25T17:13:49.460Z,15.95
2023-07-25T17:16:16.001Z,15.90
2023-07-25T17:18:42.563Z,15.88
2023-07-25T17:21:11.357Z,15.83
2023-07-25T17:23:37.807Z,15.81
2023-07-25T17:26:04.224Z,15.80
2023-07-25T17:28:30.914Z,15.80
2023-07-25T17:30:57.479Z,15.84
2023-07-25T17:33:24.032Z,15.89
2023-07-25T17:35:50.575Z,15.98
2023-07-25T17:38:18.625Z,16.03
2023-07-25T17:40:45.468Z,16.04
2023-07-25T17:43:12.277Z,16.03
2023-07-25T17:45:38.871Z,16.02
2023-07-25T17:48:05.681Z,16.00
2023-07-25T17:50:32.336Z,15.91
2023-07-25T17:52:58.905Z,15.83
2023-07-25T17:55:25.435Z,15.75
2023-07-25T17:57:51.854Z,15.73
2023-07-25T18:00:18.488Z,15.67
2023-07-25T18:02:45.740Z,15.62
2023-07-25T18:05:14.568Z,15.58
2023-07-25T18:07:41.079Z,15.51
2023-07-25T18:10:07.999Z,15.49
2023-07-25T18:12:34.485Z,15.48
2023-07-25T18:15:01.008Z,15.48
2023-07-25T18:17:36.414Z,15.42
2023-07-25T18:20:02.880Z,15.47
2023-07-25T18:22:32.246Z,15.48
2023-07-25T18:24:59.829Z,15.47
2023-07-25T18:27:26.344Z,15.46
2023-07-25T18:29:52.846Z,15.49
2023-07-25T18:32:19.274Z,15.49
2023-07-25T18:34:45.756Z,15.49
2023-07-25T18:37:12.235Z,15.51
2023-07-25T18:39:38.794Z,15.50
2023-07-25T18:42:06.131Z,15.46
2023-07-25T18:44:32.740Z,15.43
2023-07-25T18:46:59.293Z,15.40
2023-07-25T18:49:25.868Z,15.38
2023-07-25T18:51:52.331Z,15.40
2023-07-25T18:54:18.793Z,15.42
2023-07-25T18:56:45.315Z,15.33
2023-07-25T18:59:11.726Z,15.29
2023-07-25T19:01:38.272Z,15.28
2023-07-25T19:04:04.925Z,15.30
2023-07-25T19:06:31.585Z,15.33
2023-07-25T19:08:58.229Z,15.36
2023-07-25T19:11:24.688Z,15.34
2023-07-25T19:13:51.189Z,15.33
2023-07-25T19:16:17.673Z,15.32
2023-07-25T19:18:44.190Z,15.26
2023-07-25T19:21:10.630Z,15.25
2023-07-25T19:23:37.116Z,15.25
2023-07-25T19:26:03.586Z,15.24
2023-07-25T19:28:30.097Z,15.24
2023-07-25T19:30:57.382Z,15.24
2023-07-25T19:33:25.510Z,15.24
2023-07-25T19:35:57.212Z,15.19
2023-07-25T19:38:24.423Z,15.17
2023-07-25T19:40:51.559Z,15.17
2023-07-25T19:43:18.244Z,15.13
2023-07-25T19:45:47.660Z,15.10
2023-07-25T19:48:16.315Z,15.15
2023-07-25T19:50:46.380Z,15.20
2023-07-25T19:53:14.236Z,15.23
2023-07-25T19:55:40.753Z,15.24
2023-07-25T19:58:07.296Z,15.22
2023-07-25T20:00:33.987Z,15.21
2023-07-25T20:03:00.671Z,15.21
2023-07-25T20:05:27.276Z,15.21
2023-07-25T20:07:54.208Z,15.19
2023-07-25T20:10:20.700Z,15.16
2023-07-25T20:12:47.184Z,15.19
2023-07-25T20:15:13.750Z,15.18
2023-07-25T20:17:40.270Z,15.12
2023-07-25T20:20:07.297Z,15.07
2023-07-25T20:22:34.526Z,15.08
2023-07-25T20:25:01.077Z,15.05
2023-07-25T20:27:27.555Z,15.01
2023-07-25T20:29:54.103Z,15.03
2023-07-25T20:32:20.615Z,15.03
2023-07-25T20:34:47.257Z,14.98
2023-07-25T20:37:14.716Z,14.93
2023-07-25T20:39:41.268Z,14.94
2023-07-25T20:42:09.451Z,14.99
2023-07-25T20:44:35.903Z,14.97
2023-07-25T20:47:05.268Z,15.00
2023-07-25T20:49:31.990Z,15.04
2023-07-25T20:51:59.221Z,15.09
2023-07-25T20:54:25.643Z,15.08
2023-07-25T20:56:52.093Z,15.05
2023-07-25T20:59:18.628Z,15.01
2023-07-25T21:01:45.145Z,15.01
2023-07-25T21:04:11.685Z,14.95
2023-07-25T21:06:38.235Z,14.88
2023-07-25T21:09:04.731Z,14.84
2023-07-25T21:11:31.151Z,14.84
2023-07-25T21:13:57.608Z,14.80
2023-07-25T21:16:24.108Z,14.80
2023-07-25T21:18:50.634Z,14.80
2023-07-25T21:21:17.040Z,14.80
2023-07-25T21:23:43.523Z,14.79
2023-07-25T21:26:10.035Z,14.77
2023-07-25T21:28:36.507Z,14.80
2023-07-25T21:31:09.911Z,14.81
2023-07-25T21:33:37.345Z,14.83
2023-07-25T21:36:09.528Z,14.84
2023-07-25T21:38:35.998Z,14.81
2023-07-25T21:41:10.000Z,14.81
2023-07-25T21:43:36.574Z,14.82
2023-07-25T21:46:03.173Z,14.82
2023-07-25T21:48:30.201Z,14.80
2023-07-25T21:50:57.976Z,14.77
2023-07-25T21:53:29.099Z,14.78
2023-07-25T21:55:57.029Z,14.77
2023-07-25T21:58:26.478Z,14.76
2023-07-25T22:00:55.938Z,14.74
2023-07-25T22:03:22.539Z,14.74
2023-07-25T22:05:49.126Z,14.73
2023-07-25T22:08:15.715Z,14.71
2023-07-25T22:10:42.235Z,14.70
2023-07-25T22:13:09.558Z,14.68
2023-07-25T22:15:36.176Z,14.65
2023-07-25T22:18:02.739Z,14.62
2023-07-25T22:20:38.401Z,14.57
2023-07-25T22:23:09.138Z,14.56
2023-07-25T22:25:35.689Z,14.52
2023-07-25T22:28:02.080Z,14.50
2023-07-25T22:30:28.570Z,14.50
2023-07-25T22:32:55.105Z,14.49
2023-07-25T22:35:21.746Z,14.50
2023-07-25T22:37:59.075Z,14.53
2023-07-25T22:40:25.528Z,14.49
2023-07-25T22:42:52.008Z,14.49
2023-07-25T22:45:18.481Z,14.45
2023-07-25T22:47:45.031Z,14.47
2023-07-25T22:50:11.675Z,14.46
2023-07-25T22:52:38.194Z,14.47
2023-07-25T22:55:05.024Z,14.51
2023-07-25T22:57:31.505Z,14.51
2023-07-25T22:59:57.942Z,14.48
2023-07-25T23:02:24.499Z,14.46
2023-07-25T23:04:50.960Z,14.43
2023-07-25T23:07:17.384Z,14.42
2023-07-25T23:09:43.884Z,14.40
2023-07-25T23:12:12.351Z,14.40
2023-07-25T23:14:38.757Z,14.42
2023-07-25T23:17:05.427Z,14.42
2023-07-25T23:19:31.854Z,14.41
2023-07-25T23:21:58.272Z,14.38
2023-07-25T23:24:24.750Z,14.39
2023-07-25T23:26:51.297Z,14.40
2023-07-25T23:29:17.786Z,14.42
2023-07-25T23:31:44.196Z,14.45
2023-07-25T23:34:10.677Z,14.45
2023-07-25T23:36:37.069Z,14.48
2023-07-25T23:39:03.516Z,14.49
2023-07-25T23:41:29.957Z,14.53
2023-07-25T23:43:56.389Z,14.49
2023-07-25T23:46:22.846Z,14.51
2023-07-25T23:48:49.440Z,14.53
2023-07-25T23:51:15.860Z,14.54
2023-07-25T23:53:42.353Z,14.54
2023-07-25T23:56:09.031Z,14.54
2023-07-25T23:58:35.731Z,14.50
